Time;durP1;ratioP1;P1;durP2;ratioP2;P2;SDS_P1;SDS_P2;PMS_P1;PMS_P2;Temp;Humidity;BMP_temperature;BMP_pressure;BME280_temperature;BME280_humidity;BME280_pressure;Samples;Min_cycle;Max_cycle;Signal;HPM_P1;HPM_P2
2021/06/29 00:01:19;;;;;;;12.33;7.53;;;15.80;99.90;;;;;;4474316;27;658130;-72
2021/06/29 00:04:06;;;;;;;11.20;7.57;;;15.70;99.90;;;;;;4498656;27;658616;-73
2021/06/29 00:06:54;;;;;;;9.73;7.13;;;15.70;99.90;;;;;;4471909;27;657551;-72
2021/06/29 00:09:43;;;;;;;11.03;7.13;;;15.70;99.90;;;;;;4499558;27;657906;-70
2021/06/29 00:12:30;;;;;;;12.17;7.53;;;15.70;99.90;;;;;;4472817;27;658663;-73
2021/06/29 00:15:18;;;;;;;16.17;7.20;;;15.70;99.90;;;;;;4474771;27;658072;-70
2021/06/29 00:18:06;;;;;;;11.37;7.17;;;15.70;99.90;;;;;;4484985;27;658614;-72
2021/06/29 00:20:53;;;;;;;10.10;7.30;;;15.60;99.90;;;;;;4469410;27;658248;-72
2021/06/29 00:23:41;;;;;;;10.63;7.30;;;15.70;99.90;;;;;;4490575;27;658429;-72
2021/06/29 00:26:30;;;;;;;10.50;6.90;;;15.60;99.90;;;;;;4480468;27;657572;-72
2021/06/29 00:29:18;;;;;;;10.77;7.47;;;15.70;99.90;;;;;;4497592;27;657926;-72
2021/06/29 00:32:07;;;;;;;14.53;7.73;;;15.60;99.90;;;;;;4493302;27;659019;-72
2021/06/29 00:34:54;;;;;;;12.77;7.43;;;15.60;99.90;;;;;;4460066;27;658424;-72
2021/06/29 00:37:43;;;;;;;10.87;7.07;;;15.60;99.90;;;;;;4491633;27;658720;-72
2021/06/29 00:40:31;;;;;;;11.17;7.37;;;15.60;99.90;;;;;;4462301;27;658054;-72
2021/06/29 00:43:23;;;;;;;13.30;7.00;;;15.50;99.90;;;;;;4470092;27;657854;-73
2021/06/29 00:46:11;;;;;;;12.50;6.97;;;15.50;99.90;;;;;;4468531;27;659032;-72
2021/06/29 00:48:58;;;;;;;10.23;7.03;;;15.50;99.90;;;;;;4472627;27;657607;-72
2021/06/29 00:51:46;;;;;;;11.67;7.20;;;15.40;99.90;;;;;;4485516;27;658353;-72
2021/06/29 00:54:34;;;;;;;13.10;7.47;;;15.40;99.90;;;;;;4466596;27;657750;-72
2021/06/29 00:57:22;;;;;;;17.53;7.87;;;15.40;99.90;;;;;;4495599;27;657837;-73
2021/06/29 01:00:12;;;;;;;12.83;7.50;;;15.40;99.90;;;;;;4461152;27;658375;-72
2021/06/29 01:03:00;;;;;;;12.33;6.73;;;15.40;99.90;;;;;;4474106;27;658530;-72
2021/06/29 01:05:48;;;;;;;13.00;7.30;;;15.30;99.90;;;;;;4486460;27;657679;-70
2021/06/29 01:08:35;;;;;;;13.40;7.13;;;15.30;99.90;;;;;;4488201;27;658246;-72
2021/06/29 01:11:23;;;;;;;10.37;6.77;;;15.30;99.90;;;;;;4478738;27;657960;-70
2021/06/29 01:14:11;;;;;;;10.57;6.40;;;15.30;99.90;;;;;;4493095;27;659461;-72
2021/06/29 01:17:03;;;;;;;11.93;6.77;;;15.30;99.90;;;;;;4474014;27;657918;-72
2021/06/29 01:19:52;;;;;;;10.47;7.03;;;15.30;99.90;;;;;;4476504;27;659139;-72
2021/06/29 01:22:41;;;;;;;12.10;6.30;;;15.20;99.90;;;;;;4477735;27;659169;-72
2021/06/29 01:25:30;;;;;;;9.43;6.17;;;15.20;99.90;;;;;;4475920;27;658135;-72
2021/06/29 01:28:21;;;;;;;10.27;6.70;;;15.20;99.90;;;;;;4482565;27;656440;-70
2021/06/29 01:31:09;;;;;;;8.93;6.27;;;15.20;99.90;;;;;;4475208;27;657737;-72
2021/06/29 01:33:57;;;;;;;13.40;6.43;;;15.10;99.90;;;;;;4501043;27;657063;-72
2021/06/29 01:36:45;;;;;;;9.07;6.13;;;15.20;99.90;;;;;;4476675;27;658998;-72
2021/06/29 01:39:34;;;;;;;8.93;6.60;;;15.10;99.90;;;;;;4493615;27;656647;-72
2021/06/29 01:42:21;;;;;;;7.53;5.87;;;15.00;99.90;;;;;;4475058;27;657217;-72
2021/06/29 01:45:09;;;;;;;10.17;5.90;;;15.00;99.90;;;;;;4482348;27;656767;-72
2021/06/29 01:48:00;;;;;;;8.47;5.67;;;15.00;99.90;;;;;;4494311;27;657370;-72
2021/06/29 01:50:48;;;;;;;13.17;5.87;;;15.00;99.90;;;;;;4459841;27;656831;-71
2021/06/29 01:53:36;;;;;;;8.57;5.83;;;15.00;99.90;;;;;;4495942;27;658290;-72
2021/06/29 01:56:27;;;;;;;9.27;6.00;;;15.00;99.90;;;;;;4482743;27;656353;-72
2021/06/29 01:59:18;;;;;;;11.10;6.20;;;15.10;99.90;;;;;;4478291;27;657432;-72
2021/06/29 02:02:05;;;;;;;10.03;6.00;;;15.00;99.90;;;;;;4474865;27;659015;-72
2021/06/29 02:04:53;;;;;;;8.50;6.20;;;15.00;99.90;;;;;;4480987;27;657712;-70
2021/06/29 02:07:40;;;;;;;12.37;6.10;;;15.00;99.90;;;;;;4492726;27;657697;-72
2021/06/29 02:10:28;;;;;;;10.60;5.95;;;15.00;99.90;;;;;;4480962;27;657554;-70
2021/06/29 02:13:17;;;;;;;9.17;5.97;;;15.00;99.90;;;;;;4496148;27;657305;-72
2021/06/29 02:16:05;;;;;;;10.17;5.73;;;15.00;99.90;;;;;;4461589;27;657545;-72
2021/06/29 02:18:53;;;;;;;7.87;5.87;;;15.00;99.90;;;;;;4482215;27;657919;-69
2021/06/29 02:21:40;;;;;;;9.43;5.70;;;15.00;99.90;;;;;;4487968;27;657900;-72
2021/06/29 02:24:28;;;;;;;13.30;6.23;;;15.00;99.90;;;;;;4468944;27;656531;-70
2021/06/29 02:27:15;;;;;;;12.03;5.17;;;15.00;99.90;;;;;;4485240;27;658562;-70
2021/06/29 02:30:05;;;;;;;7.40;6.13;;;15.00;99.90;;;;;;4473898;27;657778;-69
2021/06/29 02:32:53;;;;;;;13.17;6.93;;;14.90;99.90;;;;;;4472686;27;656338;-68
2021/06/29 02:35:40;;;;;;;8.97;5.63;;;14.90;99.90;;;;;;4490027;27;659619;-71
2021/06/29 02:38:28;;;;;;;9.83;6.73;;;14.90;99.90;;;;;;4468700;27;656887;-69
2021/06/29 02:41:15;;;;;;;7.43;6.50;;;14.90;99.90;;;;;;4487663;27;657593;-71
2021/06/29 02:44:03;;;;;;;10.77;6.47;;;14.90;99.90;;;;;;4468459;27;656512;-69
2021/06/29 02:46:52;;;;;;;9.50;6.23;;;14.90;99.90;;;;;;4494471;27;658870;-71
2021/06/29 02:49:39;;;;;;;9.47;6.63;;;14.90;99.90;;;;;;4470942;27;657767;-70
2021/06/29 02:52:27;;;;;;;11.80;6.83;;;15.00;99.90;;;;;;4497032;27;656322;-71
2021/06/29 02:55:15;;;;;;;9.53;6.93;;;15.00;99.90;;;;;;4474942;27;658135;-71
2021/06/29 02:58:03;;;;;;;7.90;6.40;;;15.00;99.90;;;;;;4480255;27;657396;-69
2021/06/29 03:00:51;;;;;;;12.83;6.67;;;15.00;99.90;;;;;;4497482;27;656597;-70
2021/06/29 03:03:39;;;;;;;10.07;7.17;;;15.00;99.90;;;;;;4479978;27;657354;-70
2021/06/29 03:06:27;;;;;;;8.73;6.63;;;15.10;99.90;;;;;;4502406;27;657648;-71
2021/06/29 03:09:15;;;;;;;8.80;6.60;;;15.10;99.90;;;;;;4470791;27;657892;-70
2021/06/29 03:12:02;;;;;;;9.73;6.50;;;15.20;99.90;;;;;;4495914;27;656185;-71
2021/06/29 03:14:55;;;;;;;10.27;6.63;;;15.10;99.90;;;;;;4478602;27;657427;-71
2021/06/29 03:17:43;;;;;;;7.30;6.13;;;15.10;99.90;;;;;;4456442;27;657413;-70
2021/06/29 03:20:34;;;;;;;7.50;5.97;;;15.20;99.90;;;;;;4496036;27;658068;-70
2021/06/29 03:23:21;;;;;;;9.43;6.47;;;15.20;99.90;;;;;;4469646;27;657167;-71
2021/06/29 03:26:09;;;;;;;9.43;6.37;;;15.30;99.90;;;;;;4475661;27;657105;-70
2021/06/29 03:28:56;;;;;;;18.60;6.73;;;15.40;99.90;;;;;;4494466;27;656927;-71
2021/06/29 03:31:44;;;;;;;8.40;6.23;;;15.50;99.90;;;;;;4467168;27;657854;-70
2021/06/29 03:34:32;;;;;;;8.07;5.93;;;15.60;99.90;;;;;;4502715;27;656109;-71
2021/06/29 03:37:21;;;;;;;10.20;6.43;;;15.70;99.90;;;;;;4472044;27;658677;-71
2021/06/29 03:40:09;;;;;;;11.73;6.23;;;15.80;99.90;;;;;;4482617;27;658350;-71
2021/06/29 03:42:57;;;;;;;7.83;6.23;;;15.90;99.90;;;;;;4487771;27;657709;-71
2021/06/29 03:45:44;;;;;;;8.63;6.13;;;16.00;99.90;;;;;;4471421;27;657911;-71
2021/06/29 03:48:32;;;;;;;7.47;5.63;;;16.10;99.90;;;;;;4493660;27;656325;-71
2021/06/29 03:51:19;;;;;;;9.67;6.20;;;16.10;99.90;;;;;;4475107;27;657565;-71
2021/06/29 03:54:08;;;;;;;9.90;6.33;;;16.30;99.90;;;;;;4496232;27;657466;-71
2021/06/29 03:56:56;;;;;;;8.23;6.57;;;16.40;99.90;;;;;;4471454;27;657690;-71
2021/06/29 03:59:44;;;;;;;9.20;6.40;;;16.50;99.90;;;;;;4476652;27;656787;-70
2021/06/29 04:02:31;;;;;;;9.23;6.43;;;16.60;99.90;;;;;;4502278;27;657805;-71
2021/06/29 04:05:19;;;;;;;11.87;6.23;;;16.70;99.90;;;;;;4472351;27;657564;-71
2021/06/29 04:08:07;;;;;;;8.30;5.77;;;16.80;99.90;;;;;;4490922;27;658591;-71
2021/06/29 04:10:59;;;;;;;11.03;5.97;;;16.90;99.90;;;;;;4469719;27;657102;-70
2021/06/29 04:13:47;;;;;;;9.63;6.20;;;17.00;99.90;;;;;;4471327;27;657353;-71
2021/06/29 04:16:34;;;;;;;7.27;6.07;;;17.20;99.90;;;;;;4473086;27;656600;-71
2021/06/29 04:19:22;;;;;;;7.73;5.50;;;17.30;99.90;;;;;;4493189;27;656892;-71
2021/06/29 04:22:09;;;;;;;8.87;5.70;;;17.50;99.90;;;;;;4474811;27;657329;-71
2021/06/29 04:24:57;;;;;;;8.63;5.50;;;17.70;99.90;;;;;;4486302;27;657112;-71
2021/06/29 04:27:47;;;;;;;6.07;5.47;;;17.90;99.90;;;;;;4471047;27;657238;-71
2021/06/29 04:30:35;;;;;;;6.73;5.30;;;18.10;99.90;;;;;;4475847;27;657923;-71
2021/06/29 04:33:23;;;;;;;6.27;4.97;;;18.40;99.90;;;;;;4489170;27;656661;-69
2021/06/29 04:36:10;;;;;;;7.03;5.43;;;18.50;99.90;;;;;;4485617;27;656666;-71
2021/06/29 04:38:58;;;;;;;8.77;5.70;;;18.70;99.90;;;;;;4480800;27;656268;-70
2021/06/29 04:41:45;;;;;;;6.63;5.00;;;18.80;99.90;;;;;;4495225;27;658198;-71
2021/06/29 04:44:38;;;;;;;6.93;5.23;;;19.00;99.90;;;;;;4474561;27;656582;-71
2021/06/29 04:47:26;;;;;;;8.27;5.80;;;19.20;99.90;;;;;;4469283;27;657060;-72
2021/06/29 04:50:13;;;;;;;7.00;5.60;;;19.30;99.90;;;;;;4474388;27;656554;-72
2021/06/29 04:53:01;;;;;;;7.23;4.90;;;19.50;99.90;;;;;;4485814;27;657431;-72
2021/06/29 04:55:48;;;;;;;6.00;4.97;;;19.60;99.90;;;;;;4470349;27;656473;-71
2021/06/29 04:58:36;;;;;;;8.40;4.90;;;19.80;99.90;;;;;;4485887;27;657331;-72
2021/06/29 05:01:25;;;;;;;7.20;4.70;;;20.00;99.90;;;;;;4465653;27;657077;-72
2021/06/29 05:04:13;;;;;;;9.40;4.63;;;20.10;99.90;;;;;;4487142;27;656571;-70
2021/06/29 05:07:00;;;;;;;5.63;5.03;;;20.30;99.90;;;;;;4492237;27;657708;-72
2021/06/29 05:09:48;;;;;;;7.03;4.90;;;20.40;99.90;;;;;;4474881;27;656907;-70
2021/06/29 05:12:35;;;;;;;10.63;5.00;;;20.50;99.90;;;;;;4491103;27;656556;-72
2021/06/29 05:15:23;;;;;;;6.40;5.20;;;20.70;99.90;;;;;;4465074;27;658342;-71
2021/06/29 05:18:12;;;;;;;6.47;5.07;;;20.80;99.90;;;;;;4495943;27;657107;-72
2021/06/29 05:20:59;;;;;;;12.47;5.20;;;21.00;99.90;;;;;;4464853;27;658092;-73
2021/06/29 05:23:47;;;;;;;6.83;5.10;;;21.10;99.90;;;;;;4489891;27;657864;-72
2021/06/29 05:26:35;;;;;;;6.33;4.83;;;21.20;99.90;;;;;;4473424;27;658099;-72
2021/06/29 05:29:22;;;;;;;7.83;5.00;;;21.40;99.90;;;;;;4483757;27;656959;-73
2021/06/29 05:32:10;;;;;;;5.33;4.80;;;21.50;99.90;;;;;;4469682;27;657206;-73
2021/06/29 05:34:59;;;;;;;5.87;4.67;;;21.70;99.90;;;;;;4477407;27;657343;-70
2021/06/29 05:37:47;;;;;;;11.57;4.93;;;21.80;99.90;;;;;;4488214;27;656756;-72
2021/06/29 05:40:34;;;;;;;7.20;4.60;;;22.00;99.90;;;;;;4469237;27;658139;-72
2021/06/29 05:43:22;;;;;;;6.63;4.77;;;22.30;99.90;;;;;;4484704;27;657556;-72
2021/06/29 05:46:09;;;;;;;13.47;5.00;;;22.50;99.90;;;;;;4473940;27;658280;-72
2021/06/29 05:48:57;;;;;;;8.53;4.60;;;22.60;99.90;;;;;;4497704;27;657757;-72
2021/06/29 05:51:47;;;;;;;10.33;4.50;;;22.70;99.90;;;;;;4463469;27;658077;-72
2021/06/29 05:54:34;;;;;;;9.07;4.20;;;22.50;99.90;;;;;;4458917;27;658542;-72
2021/06/29 05:57:22;;;;;;;6.70;4.10;;;22.60;99.90;;;;;;4490366;27;656772;-72
2021/06/29 06:00:11;;;;;;;6.67;4.43;;;22.70;99.90;;;;;;4463853;27;656794;-72
2021/06/29 06:02:59;;;;;;;8.37;4.33;;;22.90;99.90;;;;;;4463148;27;657317;-73
2021/06/29 06:05:46;;;;;;;6.20;4.37;;;23.00;99.90;;;;;;4493003;27;656381;-72
2021/06/29 06:08:35;;;;;;;4.97;4.00;;;23.10;99.90;;;;;;4464562;27;656690;-73
2021/06/29 06:11:23;;;;;;;6.73;4.00;;;23.20;99.90;;;;;;4466318;27;656762;-72
2021/06/29 06:14:10;;;;;;;9.83;3.93;;;23.40;99.90;;;;;;4501450;27;657584;-73
2021/06/29 06:16:58;;;;;;;4.63;3.87;;;23.40;99.90;;;;;;4472033;27;656459;-72
2021/06/29 06:19:45;;;;;;;5.97;3.80;;;23.60;99.90;;;;;;4501936;27;657470;-72
2021/06/29 06:22:33;;;;;;;4.87;3.67;;;23.70;99.90;;;;;;4466537;27;656923;-72
2021/06/29 06:25:22;;;;;;;8.17;3.90;;;23.80;99.90;;;;;;4487644;27;656943;-72
2021/06/29 06:28:09;;;;;;;4.23;3.50;;;23.90;99.90;;;;;;4474340;27;657240;-72
2021/06/29 06:30:57;;;;;;;8.00;4.07;;;24.10;99.90;;;;;;4500072;27;657415;-72
2021/06/29 06:33:44;;;;;;;4.50;3.60;;;24.30;99.90;;;;;;4467580;27;657997;-72
2021/06/29 06:36:32;;;;;;;7.17;3.97;;;24.40;99.90;;;;;;4493574;27;657008;-73
2021/06/29 06:39:19;;;;;;;5.70;3.67;;;24.50;99.90;;;;;;4480761;27;656865;-71
2021/06/29 06:42:09;;;;;;;7.20;3.67;;;24.50;99.90;;;;;;4491334;27;657274;-73
2021/06/29 06:44:57;;;;;;;7.70;3.45;;;24.50;99.90;;;;;;4469228;27;656628;-73
2021/06/29 06:47:44;;;;;;;3.72;3.03;;;24.70;99.90;;;;;;4471981;27;656370;-72
2021/06/29 06:50:32;;;;;;;7.20;4.00;;;24.90;99.90;;;;;;4484037;27;657233;-71
2021/06/29 06:53:19;;;;;;;5.95;3.58;;;24.90;99.90;;;;;;4479129;27;657695;-73
2021/06/29 06:56:13;;;;;;;8.73;4.20;;;24.90;99.90;;;;;;4492324;27;656611;-73
2021/06/29 06:59:02;;;;;;;4.18;3.45;;;24.90;99.90;;;;;;4473991;27;656767;-73
2021/06/29 07:01:50;;;;;;;4.85;3.10;;;25.10;99.90;;;;;;4475424;27;656594;-73
2021/06/29 07:04:38;;;;;;;4.53;3.50;;;25.20;99.90;;;;;;4479275;27;656751;-70
2021/06/29 07:07:25;;;;;;;7.18;3.88;;;25.30;99.90;;;;;;4483518;27;657679;-73
2021/06/29 07:10:13;;;;;;;5.18;4.07;;;25.40;99.90;;;;;;4466528;27;656858;-72
2021/06/29 07:13:00;;;;;;;6.18;3.83;;;25.50;99.90;;;;;;4495900;27;657004;-73
2021/06/29 07:15:49;;;;;;;5.45;3.80;;;25.50;99.90;;;;;;4481194;27;657032;-71
2021/06/29 07:18:37;;;;;;;9.63;3.60;;;25.50;99.90;;;;;;4490121;27;656802;-73
2021/06/29 07:21:27;;;;;;;6.57;3.63;;;25.50;99.90;;;;;;4464581;27;657628;-73
2021/06/29 07:24:14;;;;;;;5.18;4.00;;;25.60;99.90;;;;;;4478984;27;656909;-73
2021/06/29 07:27:02;;;;;;;6.72;3.90;;;25.70;99.90;;;;;;4495622;27;656756;-73
2021/06/29 07:29:50;;;;;;;4.97;3.35;;;25.70;99.90;;;;;;4468937;27;657364;-73
2021/06/29 07:32:42;;;;;;;5.10;3.60;;;25.90;99.90;;;;;;4489288;27;656674;-70
2021/06/29 07:35:30;;;;;;;5.55;4.03;;;26.10;99.90;;;;;;4466984;27;657407;-74
2021/06/29 07:38:18;;;;;;;7.65;3.75;;;26.30;99.90;;;;;;4475679;27;656601;-73
2021/06/29 07:41:05;;;;;;;10.48;4.30;;;26.50;99.90;;;;;;4488817;27;656758;-74
2021/06/29 07:43:53;;;;;;;5.97;3.80;;;26.80;99.90;;;;;;4465394;27;658285;-72
2021/06/29 07:46:40;;;;;;;8.77;3.40;;;27.00;99.90;;;;;;4500946;27;656369;-74
2021/06/29 07:49:29;;;;;;;4.65;3.55;;;27.10;99.90;;;;;;4480368;27;656898;-73
2021/06/29 07:52:17;;;;;;;5.18;3.42;;;27.10;99.90;;;;;;4493354;27;656408;-73
2021/06/29 07:55:05;;;;;;;5.13;3.63;;;27.20;99.90;;;;;;4470939;27;657578;-74
2021/06/29 07:57:53;;;;;;;6.70;3.63;;;27.30;99.90;;;;;;4482914;27;656717;-71
2021/06/29 08:00:40;;;;;;;6.25;3.58;;;27.40;99.90;;;;;;4499768;27;657782;-74
2021/06/29 08:03:28;;;;;;;6.57;3.50;;;27.30;99.90;;;;;;4481654;27;657126;-73
2021/06/29 08:06:17;;;;;;;5.63;3.78;;;27.50;99.90;;;;;;4490845;27;657159;-73
2021/06/29 08:09:05;;;;;;;4.47;3.47;;;27.60;99.90;;;;;;4471222;27;657492;-73
2021/06/29 08:11:53;;;;;;;7.28;3.67;;;27.60;99.90;;;;;;4486840;27;656579;-72
2021/06/29 08:14:40;;;;;;;8.02;3.95;;;27.50;99.90;;;;;;4499925;27;658178;-74
2021/06/29 08:17:28;;;;;;;9.38;4.07;;;27.60;99.90;;;;;;4485575;27;656824;-71
2021/06/29 08:20:16;;;;;;;4.80;3.83;;;27.90;99.90;;;;;;4497006;27;657069;-73
2021/06/29 08:23:06;;;;;;;5.70;3.70;;;28.10;99.90;;;;;;4477736;27;656552;-74
2021/06/29 08:25:53;;;;;;;6.65;3.80;;;28.10;99.90;;;;;;4483964;27;656183;-74
2021/06/29 08:28:41;;;;;;;7.53;3.42;;;28.20;99.90;;;;;;4501917;27;657114;-74
2021/06/29 08:31:28;;;;;;;4.55;3.47;;;28.40;99.50;;;;;;4472861;27;657103;-74
2021/06/29 08:34:16;;;;;;;5.72;3.80;;;28.50;99.10;;;;;;4488222;27;657223;-75
2021/06/29 08:37:04;;;;;;;5.20;3.80;;;28.40;97.10;;;;;;4475707;27;656394;-74
2021/06/29 08:39:55;;;;;;;4.78;3.90;;;28.40;99.80;;;;;;4503107;27;657519;-75
2021/06/29 08:42:42;;;;;;;7.53;4.00;;;28.60;99.10;;;;;;4478470;27;656613;-74
2021/06/29 08:45:31;;;;;;;5.72;3.97;;;28.60;97.50;;;;;;4479212;27;657932;-74
2021/06/29 08:48:19;;;;;;;5.40;4.03;;;28.80;97.60;;;;;;4483589;27;656240;-75
2021/06/29 08:51:07;;;;;;;7.45;4.22;;;28.80;97.20;;;;;;4499995;27;656715;-75
2021/06/29 08:53:55;;;;;;;9.40;4.20;;;28.80;96.60;;;;;;4479426;27;656698;-75
2021/06/29 08:56:45;;;;;;;5.15;3.88;;;28.60;95.90;;;;;;4474879;27;656512;-72
2021/06/29 08:59:33;;;;;;;5.60;4.55;;;28.40;95.40;;;;;;4489074;27;657183;-73
2021/06/29 09:02:20;;;;;;;8.55;4.35;;;28.30;96.00;;;;;;4506374;27;657499;-74
2021/06/29 09:05:18;;;;;;;6.50;4.07;;;28.60;95.20;;;;;;4482533;27;656546;-72
2021/06/29 09:08:07;;;;;;;9.73;4.60;;;28.70;96.30;;;;;;4469461;27;656490;-74
2021/06/29 09:11:13;;;;;;;7.30;4.40;;;28.80;96.30;;;;;;4474727;27;656898;-75
2021/06/29 09:14:05;;;;;;;4.95;4.10;;;29.10;96.00;;;;;;4450746;27;657517;-74
2021/06/29 09:16:53;;;;;;;4.90;4.18;;;29.00;95.90;;;;;;4475576;27;656758;-72
2021/06/29 09:19:41;;;;;;;5.40;4.32;;;29.10;95.80;;;;;;4493961;27;657170;-74
2021/06/29 09:22:30;;;;;;;4.90;4.40;;;29.30;94.10;;;;;;4474268;27;657513;-74
2021/06/29 09:25:23;;;;;;;6.05;4.43;;;29.70;93.80;;;;;;4492320;27;656445;-74
2021/06/29 09:28:15;;;;;;;5.50;4.03;;;29.80;93.10;;;;;;4472043;27;657052;-75
2021/06/29 09:31:05;;;;;;;12.00;4.30;;;29.90;92.70;;;;;;4471891;27;656722;-71
2021/06/29 09:33:54;;;;;;;6.97;4.07;;;29.70;92.40;;;;;;4490371;27;657602;-71
2021/06/29 09:36:42;;;;;;;5.50;4.38;;;29.60;92.60;;;;;;4492484;27;657376;-75
2021/06/29 09:39:30;;;;;;;5.88;4.28;;;29.10;93.20;;;;;;4478858;27;657622;-76
2021/06/29 09:42:26;;;;;;;6.45;3.97;;;28.70;93.00;;;;;;4499114;27;657092;-71
2021/06/29 09:45:31;;;;;;;6.00;4.38;;;28.30;93.00;;;;;;4472334;27;656497;-75
2021/06/29 09:48:32;;;;;;;6.50;4.68;;;28.00;93.60;;;;;;4454038;27;657702;-76
2021/06/29 09:51:21;;;;;;;13.73;4.93;;;27.90;94.30;;;;;;4449921;27;656369;-76
2021/06/29 09:54:10;;;;;;;8.38;4.10;;;27.90;95.60;;;;;;4476142;27;657820;-75
2021/06/29 09:56:58;;;;;;;5.28;4.20;;;27.90;95.60;;;;;;4496788;27;656365;-72
2021/06/29 09:59:45;;;;;;;8.00;4.28;;;28.00;95.80;;;;;;4496373;27;657298;-76
2021/06/29 10:02:33;;;;;;;6.82;4.13;;;27.70;96.10;;;;;;4474810;27;656614;-72
2021/06/29 10:05:24;;;;;;;6.38;4.32;;;27.50;96.20;;;;;;4503906;27;657331;-76
2021/06/29 10:08:21;;;;;;;7.90;4.20;;;27.20;96.50;;;;;;4471756;27;656746;-76
2021/06/29 10:11:15;;;;;;;7.30;4.45;;;26.80;98.30;;;;;;4455060;27;656871;-75
2021/06/29 10:14:04;;;;;;;9.55;4.55;;;26.60;98.30;;;;;;4470478;27;656857;-72
2021/06/29 10:16:53;;;;;;;6.70;4.90;;;26.50;99.20;;;;;;4501390;27;656627;-76
2021/06/29 10:19:59;;;;;;;8.38;4.85;;;26.40;99.90;;;;;;4476098;27;657407;-75
2021/06/29 10:22:48;;;;;;;9.35;5.20;;;26.50;99.90;;;;;;4476958;27;656722;-75
2021/06/29 10:25:36;;;;;;;8.30;4.47;;;26.60;99.90;;;;;;4478544;27;657129;-76
2021/06/29 10:28:23;;;;;;;7.57;5.07;;;26.70;99.90;;;;;;4476766;27;656575;-74
2021/06/29 10:31:14;;;;;;;12.25;8.48;;;26.90;99.90;;;;;;4500525;27;657412;-76
2021/06/29 10:34:03;;;;;;;7.90;5.07;;;27.20;99.90;;;;;;4474722;27;658040;-75
2021/06/29 10:36:52;;;;;;;10.40;5.15;;;27.40;99.90;;;;;;4464960;27;656384;-75
2021/06/29 10:39:42;;;;;;;14.18;5.50;;;27.40;99.90;;;;;;4476112;27;658557;-73
2021/06/29 10:42:29;;;;;;;109.15;14.43;;;27.50;99.90;;;;;;4472255;27;658331;-74
2021/06/29 10:45:17;;;;;;;14.30;5.15;;;27.70;99.90;;;;;;4490133;27;659723;-74
2021/06/29 10:48:18;;;;;;;11.23;5.28;;;27.70;99.90;;;;;;4468053;27;658924;-74
2021/06/29 10:51:06;;;;;;;14.15;5.18;;;27.80;99.90;;;;;;4471329;27;657582;-74
2021/06/29 10:53:53;;;;;;;5.05;4.20;;;28.00;99.90;;;;;;4483665;27;657265;-72
2021/06/29 10:56:53;;;;;;;8.88;4.63;;;28.00;99.90;;;;;;4492425;27;657151;-74
2021/06/29 10:59:42;;;;;;;12.60;4.57;;;28.30;99.90;;;;;;4474599;27;656736;-74
2021/06/29 11:02:31;;;;;;;8.23;4.68;;;28.80;99.90;;;;;;4480493;27;657863;-74
2021/06/29 11:05:20;;;;;;;6.55;4.40;;;29.40;99.90;;;;;;4482677;27;656690;-75
2021/06/29 11:08:09;;;;;;;5.55;4.65;;;29.60;99.90;;;;;;4479766;27;656678;-71
2021/06/29 11:11:06;;;;;;;6.47;4.30;;;30.00;99.10;;;;;;4503874;27;656777;-73
2021/06/29 11:13:55;;;;;;;6.47;4.78;;;30.20;97.70;;;;;;4457505;27;656736;-73
2021/06/29 11:16:54;;;;;;;7.57;4.47;;;30.60;98.20;;;;;;4465838;27;657631;-71
2021/06/29 11:20:07;;;;;;;6.28;4.53;;;30.60;97.70;;;;;;4455119;27;656592;-73
2021/06/29 11:22:57;;;;;;;7.63;4.47;;;30.70;97.30;;;;;;4430363;27;657135;-73
2021/06/29 11:25:50;;;;;;;5.07;4.50;;;30.90;97.30;;;;;;4463912;27;656880;-72
2021/06/29 11:28:38;;;;;;;6.40;4.40;;;30.90;94.80;;;;;;4443001;27;656555;-71
2021/06/29 11:31:30;;;;;;;7.20;4.18;;;31.00;95.50;;;;;;4483224;27;658802;-73
2021/06/29 11:34:26;;;;;;;6.53;4.30;;;31.30;95.90;;;;;;4440523;27;656510;-71
2021/06/29 11:37:14;;;;;;;9.15;4.35;;;31.20;95.80;;;;;;4428065;27;657212;-74
2021/06/29 11:40:01;;;;;;;10.52;4.68;;;31.40;94.80;;;;;;4473905;27;656264;-73
2021/06/29 11:43:07;;;;;;;12.77;4.63;;;31.00;94.00;;;;;;4464876;27;657513;-74
2021/06/29 11:45:54;;;;;;;6.53;4.40;;;31.30;93.00;;;;;;4436753;27;658020;-75
2021/06/29 11:48:44;;;;;;;9.95;5.30;;;31.30;92.60;;;;;;4481373;27;656855;-74
2021/06/29 11:51:59;;;;;;;7.97;4.82;;;31.60;93.20;;;;;;4455888;27;656523;-74
2021/06/29 11:54:49;;;;;;;9.00;4.45;;;31.90;93.90;;;;;;4413492;27;657052;-74
2021/06/29 11:57:39;;;;;;;7.97;4.47;;;32.10;92.80;;;;;;4458806;27;656671;-76
2021/06/29 12:00:27;;;;;;;8.18;4.82;;;32.50;91.70;;;;;;4460934;27;656608;-73
2021/06/29 12:03:19;;;;;;;12.60;4.67;;;32.60;90.90;;;;;;4451204;27;656848;-74
2021/06/29 12:06:16;;;;;;;7.80;4.20;;;32.60;91.60;;;;;;4458519;27;657312;-75
2021/06/29 12:09:04;;;;;;;6.60;4.20;;;33.00;90.60;;;;;;4456413;27;657203;-75
2021/06/29 12:11:51;;;;;;;4.80;4.30;;;33.20;89.60;;;;;;4475518;27;656831;-76
2021/06/29 12:14:39;;;;;;;5.17;4.30;;;32.50;88.30;;;;;;4459285;27;656815;-75
2021/06/29 12:17:26;;;;;;;9.75;4.38;;;32.30;87.30;;;;;;4490802;27;656383;-75
2021/06/29 12:20:15;;;;;;;6.97;4.40;;;32.40;86.20;;;;;;4474500;27;656524;-74
2021/06/29 12:23:06;;;;;;;6.32;4.25;;;32.30;86.70;;;;;;4481595;27;656415;-73
2021/06/29 12:25:54;;;;;;;4.78;4.10;;;32.20;85.10;;;;;;4476924;27;657133;-75
2021/06/29 12:28:41;;;;;;;7.55;3.92;;;31.90;84.60;;;;;;4487070;27;657281;-74
2021/06/29 12:31:29;;;;;;;7.43;4.35;;;31.60;84.70;;;;;;4475320;27;656565;-76
2021/06/29 12:34:22;;;;;;;5.43;4.10;;;31.20;85.50;;;;;;4492211;27;656877;-76
2021/06/29 12:37:10;;;;;;;5.57;4.18;;;31.10;87.50;;;;;;4451756;27;656924;-75
2021/06/29 12:40:07;;;;;;;4.80;3.95;;;31.30;89.70;;;;;;4489883;27;656527;-74
2021/06/29 12:42:54;;;;;;;5.00;4.22;;;31.50;90.40;;;;;;4474643;27;657087;-76
2021/06/29 12:45:42;;;;;;;5.82;4.00;;;31.80;90.30;;;;;;4489114;27;656673;-75
2021/06/29 12:48:29;;;;;;;7.85;4.40;;;32.30;86.30;;;;;;4463644;27;657412;-75
2021/06/29 12:51:17;;;;;;;8.60;4.22;;;32.60;84.60;;;;;;4489289;27;656567;-74
2021/06/29 12:54:06;;;;;;;4.85;4.38;;;33.00;84.50;;;;;;4466767;27;657523;-75
2021/06/29 12:56:56;;;;;;;5.97;4.63;;;32.90;82.30;;;;;;4469321;27;656565;-75
2021/06/29 12:59:45;;;;;;;5.82;3.92;;;33.10;82.40;;;;;;4479245;27;657525;-75
2021/06/29 13:02:33;;;;;;;6.28;4.22;;;33.00;79.00;;;;;;4483496;27;656922;-71
2021/06/29 13:05:22;;;;;;;9.07;4.28;;;33.00;77.00;;;;;;4496768;27;656387;-77
2021/06/29 13:08:12;;;;;;;5.10;3.60;;;32.80;77.70;;;;;;4470189;27;656872;-76
2021/06/29 13:11:09;;;;;;;4.93;4.20;;;33.20;76.70;;;;;;4473015;27;656742;-76
2021/06/29 13:14:02;;;;;;;4.18;3.70;;;33.50;77.20;;;;;;4467787;27;656488;-75
2021/06/29 13:16:49;;;;;;;5.07;4.22;;;34.10;78.20;;;;;;4456421;27;657071;-75
2021/06/29 13:19:37;;;;;;;5.30;4.00;;;34.20;77.00;;;;;;4493766;27;656640;-75
2021/06/29 13:22:24;;;;;;;4.80;4.25;;;33.60;77.80;;;;;;4462157;27;657787;-75
2021/06/29 13:25:26;;;;;;;7.40;3.97;;;33.70;79.60;;;;;;4495131;27;657123;-75
2021/06/29 13:28:14;;;;;;;5.10;3.60;;;34.10;75.10;;;;;;4456655;27;657876;-75
2021/06/29 13:31:04;;;;;;;3.90;3.40;;;33.70;74.20;;;;;;4492739;27;656060;-74
2021/06/29 13:33:51;;;;;;;4.88;3.72;;;33.60;74.70;;;;;;4467167;27;656524;-74
2021/06/29 13:36:39;;;;;;;5.60;3.73;;;34.10;75.50;;;;;;4467471;27;656557;-75
2021/06/29 13:39:27;;;;;;;6.20;3.85;;;34.20;75.90;;;;;;4492730;27;656190;-75
2021/06/29 13:42:19;;;;;;;5.20;3.10;;;34.00;74.00;;;;;;4473858;27;657081;-75
2021/06/29 13:45:07;;;;;;;5.07;3.80;;;33.90;73.30;;;;;;4459069;27;657032;-74
2021/06/29 13:47:56;;;;;;;5.47;3.78;;;34.10;73.70;;;;;;4473851;27;657012;-73
2021/06/29 13:50:45;;;;;;;5.03;3.70;;;34.20;72.80;;;;;;4466736;27;656743;-75
2021/06/29 13:53:34;;;;;;;4.63;3.88;;;34.10;72.50;;;;;;4474833;27;656705;-72
2021/06/29 13:56:37;;;;;;;5.78;3.83;;;34.20;71.80;;;;;;4499702;27;656517;-75
2021/06/29 13:59:32;;;;;;;5.80;4.20;;;34.30;71.70;;;;;;4451496;27;657485;-75
2021/06/29 14:02:28;;;;;;;6.63;3.92;;;34.20;72.30;;;;;;4474659;27;656593;-75
2021/06/29 14:05:17;;;;;;;5.82;3.80;;;34.40;73.00;;;;;;4462523;27;656532;-75
2021/06/29 14:08:12;;;;;;;7.13;4.22;;;34.20;70.00;;;;;;4476648;27;657111;-75
2021/06/29 14:11:10;;;;;;;12.50;3.77;;;33.90;72.10;;;;;;4438281;27;656763;-75
2021/06/29 14:13:58;;;;;;;3.90;3.50;;;34.00;73.10;;;;;;4444240;27;657244;-73
2021/06/29 14:16:45;;;;;;;5.35;3.60;;;33.60;74.10;;;;;;4492028;27;657283;-74
2021/06/29 14:19:33;;;;;;;5.43;3.80;;;33.40;75.20;;;;;;4472000;27;656674;-75
2021/06/29 14:22:22;;;;;;;9.77;3.90;;;33.70;73.20;;;;;;4483335;27;657159;-76
2021/06/29 14:25:11;;;;;;;4.00;3.50;;;33.90;72.70;;;;;;4465129;27;657073;-75
2021/06/29 14:27:58;;;;;;;4.00;3.67;;;34.10;71.80;;;;;;4477419;27;656609;-74